createdAt,value
2023-04-12T00:01:31.060Z,3.50
2023-04-12T00:03:59.141Z,4.00
2023-04-12T00:06:32.582Z,3.60
2023-04-12T00:09:01.939Z,3.10
2023-04-12T00:11:32.145Z,3.20
2023-04-12T00:13:59.919Z,3.80
2023-04-12T00:16:27.798Z,3.90
2023-04-12T00:18:57.475Z,3.60
2023-04-12T00:21:28.940Z,4.10
2023-04-12T00:23:57.346Z,3.90
2023-04-12T00:26:25.999Z,4.40
2023-04-12T00:28:53.705Z,4.00
2023-04-12T00:31:21.791Z,4.20
2023-04-12T00:33:49.803Z,3.60
2023-04-12T00:36:17.902Z,4.50
2023-04-12T00:38:46.247Z,3.90
2023-04-12T00:41:14.725Z,4.10
2023-04-12T00:43:42.482Z,4.40
2023-04-12T00:46:12.454Z,5.10
2023-04-12T00:48:40.717Z,5.00
2023-04-12T00:51:09.078Z,5.80
2023-04-12T00:53:38.371Z,5.80
2023-04-12T00:56:07.787Z,7.10
2023-04-12T00:58:36.282Z,5.80
2023-04-12T01:01:04.141Z,6.50
2023-04-12T01:03:32.190Z,7.00
2023-04-12T01:06:16.462Z,5.90
2023-04-12T01:09:13.033Z,7.60
2023-04-12T01:12:16.885Z,7.10
2023-04-12T01:14:57.043Z,8.00
2023-04-12T01:17:38.076Z,11.80
2023-04-12T01:20:16.915Z,9.30
2023-04-12T01:22:59.958Z,8.40
2023-04-12T01:25:46.005Z,9.00
2023-04-12T01:28:24.076Z,9.00
2023-04-12T01:30:53.452Z,10.70
2023-04-12T01:33:23.265Z,8.80
2023-04-12T01:35:53.241Z,9.40
2023-04-12T01:38:21.914Z,8.50
2023-04-12T01:40:49.830Z,9.40
2023-04-12T01:43:18.352Z,10.00
2023-04-12T01:45:46.300Z,8.70
2023-04-12T01:48:14.330Z,8.60
2023-04-12T01:51:01.553Z,9.00
2023-04-12T01:53:43.618Z,9.20
2023-04-12T01:56:12.569Z,10.10
2023-04-12T01:58:43.813Z,9.70
2023-04-12T02:01:15.573Z,9.80
2023-04-12T02:03:45.195Z,8.90
2023-04-12T02:06:13.905Z,8.40
2023-04-12T02:08:41.686Z,8.60
2023-04-12T02:11:11.156Z,8.50
2023-04-12T02:13:38.929Z,8.20
2023-04-12T02:16:10.964Z,8.40
2023-04-12T02:18:41.793Z,10.00
2023-04-12T02:21:09.562Z,9.10
2023-04-12T02:23:37.316Z,7.60
2023-04-12T02:26:05.179Z,8.60
2023-04-12T02:28:34.787Z,6.70
2023-04-12T02:31:02.802Z,8.70
2023-04-12T02:33:30.884Z,6.80
2023-04-12T02:35:59.487Z,6.80
2023-04-12T02:38:27.277Z,7.20
2023-04-12T02:40:56.163Z,7.60
2023-04-12T02:43:23.928Z,8.40
2023-04-12T02:45:51.748Z,8.00
2023-04-12T02:48:19.711Z,6.70
2023-04-12T02:50:47.464Z,7.10
2023-04-12T02:53:16.549Z,7.80
2023-04-12T02:55:44.808Z,8.70
2023-04-12T02:58:12.978Z,8.00
2023-04-12T03:00:42.610Z,6.50
2023-04-12T03:03:10.482Z,7.40
2023-04-12T03:05:39.882Z,7.90
2023-04-12T03:08:07.744Z,8.80
2023-04-12T03:10:35.730Z,7.10
2023-04-12T03:13:05.060Z,7.80
2023-04-12T03:15:32.936Z,8.00
2023-04-12T03:18:00.873Z,8.80
2023-04-12T03:20:29.043Z,8.80
2023-04-12T03:22:56.885Z,8.70
2023-04-12T03:25:24.643Z,8.20
2023-04-12T03:27:52.832Z,9.10
2023-04-12T03:30:20.582Z,8.10
2023-04-12T03:32:48.381Z,9.80
2023-04-12T03:35:16.355Z,7.30
2023-04-12T03:37:44.197Z,8.20
2023-04-12T03:40:12.758Z,8.00
2023-04-12T03:42:40.624Z,8.80
2023-04-12T03:45:09.213Z,8.50
2023-04-12T03:47:37.335Z,8.00
2023-04-12T03:50:11.498Z,8.30
2023-04-12T03:52:40.431Z,10.50
2023-04-12T03:55:08.922Z,10.10
2023-04-12T03:57:36.854Z,9.20
2023-04-12T04:00:06.514Z,8.40
2023-04-12T04:02:34.909Z,11.10
2023-04-12T04:05:04.201Z,9.00
2023-04-12T04:07:32.293Z,9.10
2023-04-12T04:10:00.265Z,10.50
2023-04-12T04:12:28.229Z,9.00
2023-04-12T04:14:56.095Z,9.00
2023-04-12T04:17:23.964Z,11.00
2023-04-12T04:19:51.930Z,10.40
2023-04-12T04:22:21.783Z,10.50
2023-04-12T04:24:50.430Z,11.00
2023-04-12T04:27:20.660Z,10.60
2023-04-12T04:29:48.410Z,10.40
2023-04-12T04:32:16.276Z,10.10
2023-04-12T04:34:44.970Z,10.00
2023-04-12T04:37:13.439Z,11.10
2023-04-12T04:39:41.154Z,9.40
2023-04-12T04:42:09.796Z,10.50
2023-04-12T04:44:37.653Z,10.10
2023-04-12T04:47:08.792Z,10.00
2023-04-12T04:49:39.502Z,9.30
2023-04-12T04:52:08.739Z,11.00
2023-04-12T04:54:36.558Z,8.40
2023-04-12T04:57:08.038Z,8.20
2023-04-12T04:59:35.876Z,9.50
2023-04-12T05:02:04.090Z,9.00
2023-04-12T05:04:32.438Z,11.30
2023-04-12T05:07:00.600Z,10.30
2023-04-12T05:09:28.458Z,9.10
2023-04-12T05:11:56.326Z,10.00
2023-04-12T05:14:24.188Z,10.80
2023-04-12T05:16:52.286Z,9.60
2023-04-12T05:19:21.080Z,9.60
2023-04-12T05:21:48.915Z,11.50
2023-04-12T05:24:16.676Z,9.40
2023-04-12T05:26:45.463Z,10.20
2023-04-12T05:29:13.203Z,11.50
2023-04-12T05:31:41.017Z,10.50
2023-04-12T05:34:08.861Z,9.40
2023-04-12T05:36:36.820Z,10.30
2023-04-12T05:39:04.692Z,10.10
2023-04-12T05:41:32.552Z,9.10
2023-04-12T05:44:00.423Z,11.40
2023-04-12T05:46:28.348Z,11.90
2023-04-12T05:48:56.779Z,9.30
2023-04-12T05:51:37.810Z,9.70
2023-04-12T05:54:09.342Z,10.70
2023-04-12T05:56:37.833Z,10.20
2023-04-12T05:59:05.640Z,10.10
2023-04-12T06:01:34.418Z,9.80
2023-04-12T06:04:06.188Z,9.80
2023-04-12T06:06:34.672Z,9.90
2023-04-12T06:09:04.889Z,8.60
2023-04-12T06:11:35.424Z,10.40
2023-04-12T06:14:03.217Z,9.70
2023-04-12T06:16:31.334Z,10.20
2023-04-12T06:18:59.573Z,9.20
2023-04-12T06:21:27.900Z,10.70
2023-04-12T06:23:55.969Z,11.20
2023-04-12T06:26:23.764Z,8.70
2023-04-12T06:28:51.593Z,10.50
2023-04-12T06:31:19.441Z,11.50
2023-04-12T06:33:47.835Z,10.30
2023-04-12T06:36:16.364Z,10.60
2023-04-12T06:38:44.503Z,9.20
2023-04-12T06:41:12.454Z,10.10
2023-04-12T06:43:40.341Z,10.10
2023-04-12T06:46:09.221Z,9.70
2023-04-12T06:48:37.075Z,9.20
2023-04-12T06:51:05.654Z,10.60
2023-04-12T06:53:35.228Z,10.80
2023-04-12T06:56:06.425Z,10.60
2023-04-12T06:58:34.265Z,9.30
2023-04-12T07:01:10.270Z,9.90
2023-04-12T07:03:39.095Z,9.80
2023-04-12T07:06:17.748Z,8.90
2023-04-12T07:08:49.898Z,9.20
2023-04-12T07:11:21.431Z,10.30
2023-04-12T07:13:51.276Z,10.40
2023-04-12T07:16:19.464Z,9.30
2023-04-12T07:18:47.762Z,10.20
2023-04-12T07:21:17.733Z,8.60
2023-04-12T07:23:46.953Z,9.80
2023-04-12T07:26:14.751Z,10.40
2023-04-12T07:28:42.674Z,9.70
2023-04-12T07:31:10.848Z,10.50
2023-04-12T07:33:41.433Z,10.10
2023-04-12T07:36:12.109Z,10.30
2023-04-12T07:38:40.057Z,8.50
2023-04-12T07:41:08.101Z,10.70
2023-04-12T07:43:36.096Z,10.10
2023-04-12T07:46:07.949Z,9.20
2023-04-12T07:48:35.821Z,8.20
2023-04-12T07:51:04.267Z,10.40
2023-04-12T07:53:32.207Z,9.90
2023-04-12T07:56:00.198Z,11.00
2023-04-12T07:58:28.042Z,10.10
2023-04-12T08:00:58.074Z,9.40
2023-04-12T08:03:28.424Z,9.40
2023-04-12T08:05:56.772Z,10.60
2023-04-12T08:08:25.269Z,9.70
2023-04-12T08:10:53.375Z,8.80
2023-04-12T08:13:21.549Z,11.00
2023-04-12T08:15:49.674Z,9.90
2023-04-12T08:18:17.698Z,9.50
2023-04-12T08:20:45.652Z,9.50
2023-04-12T08:23:13.622Z,8.60
2023-04-12T08:25:41.839Z,9.90
2023-04-12T08:28:09.698Z,7.70
2023-04-12T08:30:37.625Z,9.80
2023-04-12T08:33:05.760Z,8.80
2023-04-12T08:35:34.208Z,7.70
2023-04-12T08:38:08.179Z,6.90
2023-04-12T08:40:36.102Z,9.00
2023-04-12T08:43:08.666Z,7.60
2023-04-12T08:45:37.727Z,9.40
2023-04-12T08:48:06.432Z,8.20
2023-04-12T08:50:34.539Z,7.80
2023-04-12T08:53:03.158Z,8.40
2023-04-12T08:55:31.133Z,8.70
2023-04-12T08:57:59.386Z,8.10
2023-04-12T09:00:27.626Z,8.90
2023-04-12T09:02:55.607Z,9.30
2023-04-12T09:05:31.392Z,16.50
2023-04-12T09:07:59.590Z,10.40
2023-04-12T09:10:33.585Z,8.80
2023-04-12T09:13:01.722Z,7.90
2023-04-12T09:15:30.429Z,9.00
2023-04-12T09:18:09.566Z,9.30
2023-04-12T09:20:39.254Z,8.80
2023-04-12T09:23:21.531Z,9.10
2023-04-12T09:25:52.782Z,8.20
2023-04-12T09:30:52.002Z,7.80
2023-04-12T09:33:22.297Z,6.90
2023-04-12T09:35:51.364Z,7.50
2023-04-12T09:38:19.439Z,7.80
2023-04-12T09:40:47.800Z,6.80
2023-04-12T09:43:16.233Z,7.10
2023-04-12T09:45:44.263Z,7.70
2023-04-12T09:48:21.196Z,7.70
2023-04-12T09:50:58.426Z,8.50
2023-04-12T09:53:26.605Z,7.60
2023-04-12T09:55:56.625Z,8.20
2023-04-12T09:58:25.912Z,8.60
2023-04-12T10:00:56.790Z,6.50
2023-04-12T10:03:25.317Z,6.80
2023-04-12T10:05:55.276Z,8.70
2023-04-12T10:08:23.568Z,7.20
2023-04-12T10:10:53.635Z,7.20
2023-04-12T10:13:23.881Z,7.50
2023-04-12T10:15:53.826Z,8.00
2023-04-12T10:18:23.820Z,7.90
2023-04-12T10:20:52.065Z,7.20
2023-04-12T10:23:20.212Z,7.50
2023-04-12T10:25:49.183Z,7.70
2023-04-12T10:28:19.677Z,8.00
2023-04-12T10:30:49.827Z,6.90
2023-04-12T10:33:30.925Z,7.80
2023-04-12T10:36:00.825Z,7.50
2023-04-12T10:38:35.381Z,8.00
2023-04-12T10:41:20.254Z,9.50
2023-04-12T10:43:49.416Z,8.30
2023-04-12T10:46:52.729Z,8.80
2023-04-12T10:49:21.029Z,9.20
2023-04-12T10:52:17.822Z,9.60
2023-04-12T10:54:45.755Z,8.20
2023-04-12T10:57:43.148Z,9.90
2023-04-12T11:00:11.841Z,8.70
2023-04-12T11:03:07.768Z,9.10
2023-04-12T11:06:06.484Z,8.00
2023-04-12T11:08:42.209Z,8.00
2023-04-12T11:11:22.893Z,9.60
2023-04-12T11:13:55.931Z,9.20
2023-04-12T11:16:23.994Z,7.90
2023-04-12T11:18:54.082Z,10.10
2023-04-12T11:21:22.710Z,8.90
2023-04-12T11:23:53.092Z,9.90
2023-04-12T11:26:22.492Z,9.20
2023-04-12T11:28:53.531Z,7.40
2023-04-12T11:31:23.406Z,8.40
2023-04-12T11:33:51.815Z,8.50
2023-04-12T11:36:19.932Z,10.10
2023-04-12T11:38:48.171Z,9.00
2023-04-12T11:41:16.989Z,8.30
2023-04-12T11:43:46.282Z,10.60
2023-04-12T11:46:15.584Z,9.80
2023-04-12T11:48:46.796Z,9.10
2023-04-12T11:51:25.038Z,11.00
2023-04-12T11:53:57.513Z,10.40
2023-04-12T11:56:27.594Z,8.70
2023-04-12T11:58:55.767Z,9.10
2023-04-12T12:01:24.242Z,9.60
2023-04-12T12:03:52.911Z,8.10
2023-04-12T12:06:23.067Z,9.50
2023-04-12T12:08:52.282Z,9.20
2023-04-12T12:11:21.823Z,9.70
2023-04-12T12:13:55.253Z,9.30
2023-04-12T12:16:28.675Z,8.80
2023-04-12T12:18:57.978Z,9.00
2023-04-12T12:21:27.494Z,10.20
2023-04-12T12:23:57.474Z,10.10
2023-04-12T12:26:28.420Z,9.30
2023-04-12T12:28:58.020Z,9.60
2023-04-12T12:31:28.679Z,9.00
2023-04-12T12:33:59.571Z,10.80
2023-04-12T12:36:36.465Z,10.30
2023-04-12T12:39:10.684Z,10.50
2023-04-12T12:41:40.707Z,11.70
2023-04-12T12:44:09.103Z,10.30
2023-04-12T12:49:07.961Z,11.30
2023-04-12T12:51:36.032Z,9.20
2023-04-12T12:54:04.001Z,10.10
2023-04-12T12:56:32.177Z,8.50
2023-04-12T12:58:59.999Z,9.70
2023-04-12T13:01:28.320Z,10.20
2023-04-12T13:03:56.646Z,8.90
2023-04-12T13:06:28.187Z,8.40
2023-04-12T13:08:56.206Z,8.70
2023-04-12T13:11:25.110Z,9.70
2023-04-12T13:13:52.928Z,8.60
2023-04-12T13:16:26.140Z,9.80
2023-04-12T13:18:54.708Z,7.90
2023-04-12T13:21:23.916Z,9.40
2023-04-12T13:23:51.909Z,9.00
2023-04-12T13:26:20.161Z,9.20
2023-04-12T13:28:48.048Z,9.30
2023-04-12T13:31:15.933Z,9.70
2023-04-12T13:33:43.985Z,10.70
2023-04-12T13:36:11.863Z,8.60
2023-04-12T13:38:40.428Z,8.30
2023-04-12T13:41:08.196Z,7.90
2023-04-12T13:43:36.059Z,9.20
2023-04-12T13:46:04.174Z,8.60
2023-04-12T13:48:32.294Z,9.40
2023-04-12T13:51:00.337Z,7.40
2023-04-12T13:53:29.288Z,9.50
2023-04-12T13:55:57.337Z,9.60
2023-04-12T13:58:26.256Z,8.50
2023-04-12T14:00:56.262Z,8.30
2023-04-12T14:03:24.235Z,8.60
2023-04-12T14:05:52.692Z,8.40
2023-04-12T14:08:20.913Z,11.00
2023-04-12T14:10:48.729Z,10.50
2023-04-12T14:13:16.691Z,8.70
2023-04-12T14:15:44.555Z,10.40
2023-04-12T14:18:12.382Z,9.50
2023-04-12T14:20:40.420Z,9.80
2023-04-12T14:23:08.367Z,9.60
2023-04-12T14:25:39.504Z,8.40
2023-04-12T14:28:07.673Z,8.50
2023-04-12T14:30:35.565Z,8.70
2023-04-12T14:33:03.458Z,8.50
2023-04-12T14:35:31.458Z,8.20
2023-04-12T14:37:59.236Z,7.90
2023-04-12T14:40:27.099Z,8.20
2023-04-12T14:42:57.639Z,7.70
2023-04-12T14:45:27.709Z,7.00
2023-04-12T14:47:56.113Z,8.00
2023-04-12T14:50:24.002Z,7.10
2023-04-12T14:52:51.830Z,7.00
2023-04-12T14:55:19.843Z,6.90
2023-04-12T14:57:47.584Z,7.70
2023-04-12T15:00:16.452Z,7.60
2023-04-12T15:02:46.431Z,7.80
2023-04-12T15:05:14.742Z,7.60
2023-04-12T15:07:42.647Z,7.50
2023-04-12T15:10:14.308Z,8.20
2023-04-12T15:12:42.772Z,7.00
2023-04-12T15:15:11.323Z,6.80
2023-04-12T15:17:39.075Z,7.50
2023-04-12T15:20:12.587Z,6.60
2023-04-12T15:22:40.575Z,6.10
2023-04-12T15:25:09.817Z,6.50
2023-04-12T15:27:38.177Z,6.90
2023-04-12T15:30:09.816Z,6.30
2023-04-12T15:32:40.697Z,6.70
2023-04-12T15:35:25.386Z,7.50
2023-04-12T15:37:55.614Z,6.80
2023-04-12T15:40:26.252Z,6.40
2023-04-12T15:42:54.049Z,6.60
2023-04-12T15:45:22.296Z,7.00
2023-04-12T15:47:50.380Z,6.00
2023-04-12T15:50:19.192Z,8.70
2023-04-12T15:52:47.683Z,7.50
2023-04-12T15:55:18.837Z,7.80
2023-04-12T16:00:26.301Z,6.30
2023-04-12T16:02:56.322Z,6.60
2023-04-12T16:05:24.992Z,6.30
2023-04-12T16:07:54.207Z,6.20
2023-04-12T16:10:22.497Z,7.40
2023-04-12T16:12:52.110Z,6.20
2023-04-12T16:15:21.266Z,7.40
2023-04-12T16:17:53.329Z,7.10
2023-04-12T16:20:22.356Z,7.30
2023-04-12T16:22:54.636Z,6.50
2023-04-12T16:25:24.428Z,7.00
2023-04-12T16:27:52.372Z,6.40
2023-04-12T16:30:20.464Z,6.70
2023-04-12T16:32:49.021Z,7.20
2023-04-12T16:35:16.979Z,8.40
2023-04-12T16:37:45.982Z,7.00
2023-04-12T16:40:14.391Z,6.30
2023-04-12T16:42:43.546Z,7.90
2023-04-12T16:45:14.578Z,7.90
2023-04-12T16:50:12.869Z,6.30
2023-04-12T16:52:41.849Z,6.50
2023-04-12T16:55:14.338Z,6.60
2023-04-12T16:57:43.036Z,6.60
2023-04-12T17:00:20.894Z,5.80
2023-04-12T17:02:50.469Z,5.60
2023-04-12T17:05:19.988Z,6.80
2023-04-12T17:07:50.048Z,6.90
2023-04-12T17:10:19.675Z,6.80
2023-04-12T17:12:50.184Z,7.40
2023-04-12T17:15:19.281Z,6.80
2023-04-12T17:17:48.941Z,5.80
2023-04-12T17:20:19.820Z,5.00
2023-04-12T17:22:49.229Z,5.90
2023-04-12T17:25:18.901Z,5.50
2023-04-12T17:27:48.846Z,6.20
2023-04-12T17:30:17.844Z,6.10
2023-04-12T17:32:47.557Z,6.30
2023-04-12T17:35:17.664Z,5.50
2023-04-12T17:37:46.987Z,6.40
2023-04-12T17:40:15.460Z,5.70
2023-04-12T17:42:44.082Z,6.50
2023-04-12T17:45:13.943Z,7.00
2023-04-12T17:47:42.801Z,6.60
2023-04-12T17:50:11.804Z,6.70
2023-04-12T17:52:40.050Z,7.00
2023-04-12T17:55:12.576Z,7.00
2023-04-12T17:57:41.696Z,6.80
2023-04-12T18:00:11.973Z,8.10
2023-04-12T18:02:40.887Z,6.90
2023-04-12T18:05:09.473Z,7.00
2023-04-12T18:07:38.351Z,6.60
2023-04-12T18:10:10.368Z,6.30
2023-04-12T18:12:38.807Z,6.90
2023-04-12T18:15:08.511Z,8.20
2023-04-12T18:17:36.551Z,8.40
2023-04-12T18:20:09.772Z,7.30
2023-04-12T18:22:38.471Z,8.00
2023-04-12T18:25:07.828Z,7.50
2023-04-12T18:27:35.931Z,9.00
2023-04-12T18:30:04.953Z,9.90
2023-04-12T18:32:32.976Z,13.10
2023-04-12T18:35:00.982Z,14.20
2023-04-12T18:37:28.928Z,15.10
2023-04-12T18:39:56.790Z,15.20
2023-04-12T18:42:24.767Z,15.20
2023-04-12T18:44:52.727Z,17.10
2023-04-12T18:47:20.594Z,15.30
2023-04-12T18:49:48.559Z,16.40
2023-04-12T18:52:16.856Z,14.50
2023-04-12T18:54:44.648Z,15.60
2023-04-12T18:57:14.424Z,16.40
2023-04-12T18:59:42.540Z,13.80
2023-04-12T19:02:10.681Z,13.70
2023-04-12T19:04:45.398Z,11.70
2023-04-12T19:07:13.281Z,12.20
2023-04-12T19:09:41.328Z,10.80
2023-04-12T19:12:09.200Z,11.80
2023-04-12T19:14:36.932Z,12.50
2023-04-12T19:17:04.928Z,15.60
2023-04-12T19:19:32.690Z,15.20
2023-04-12T19:22:00.654Z,13.90
2023-04-12T19:24:28.544Z,13.60
2023-04-12T19:26:56.488Z,14.70
2023-04-12T19:29:26.272Z,12.80
2023-04-12T19:31:54.364Z,18.70
2023-04-12T19:34:23.353Z,17.80
2023-04-12T19:36:51.230Z,16.40
2023-04-12T19:39:20.526Z,13.30
2023-04-12T19:41:49.404Z,14.90
2023-04-12T19:44:17.298Z,14.00
2023-04-12T19:46:45.282Z,13.80
2023-04-12T19:49:13.543Z,12.80
2023-04-12T19:51:41.498Z,12.50
2023-04-12T19:54:10.178Z,14.40
2023-04-12T19:56:38.263Z,15.10
2023-04-12T19:59:06.734Z,14.60
2023-04-12T20:01:43.302Z,15.60
2023-04-12T20:04:11.416Z,14.80
2023-04-12T20:06:39.576Z,18.20
2023-04-12T20:09:08.841Z,21.80
2023-04-12T20:11:38.281Z,20.00
2023-04-12T20:14:09.626Z,19.80
2023-04-12T20:19:06.552Z,18.10
2023-04-12T20:21:34.947Z,16.10
2023-04-12T20:24:04.036Z,14.80
2023-04-12T20:26:31.893Z,16.00
2023-04-12T20:29:04.931Z,14.70
2023-04-12T20:31:33.147Z,16.40
2023-04-12T20:34:01.122Z,18.70
2023-04-12T20:36:29.813Z,19.10
2023-04-12T20:38:58.320Z,17.00
2023-04-12T20:41:26.463Z,17.70
2023-04-12T20:43:54.422Z,18.80
2023-04-12T20:46:26.013Z,18.70
2023-04-12T20:48:56.539Z,17.00
2023-04-12T20:51:24.776Z,15.50
2023-04-12T20:53:53.778Z,18.40
2023-04-12T20:56:21.538Z,17.90
2023-04-12T20:58:50.012Z,18.60
2023-04-12T21:01:18.958Z,17.00
2023-04-12T21:03:47.303Z,19.40
2023-04-12T21:06:17.086Z,18.70
2023-04-12T21:08:47.411Z,20.30
2023-04-12T21:11:15.120Z,21.40
2023-04-12T21:13:44.676Z,21.40
2023-04-12T21:16:16.240Z,19.80
2023-04-12T21:18:45.022Z,19.20
2023-04-12T21:21:13.005Z,20.00
2023-04-12T21:23:41.258Z,20.40
2023-04-12T21:26:09.333Z,20.70
2023-04-12T21:28:38.632Z,21.40
2023-04-12T21:31:07.108Z,25.00
2023-04-12T21:33:36.719Z,24.90
2023-04-12T21:36:05.956Z,23.30
2023-04-12T21:38:36.479Z,25.80
2023-04-12T21:41:09.929Z,25.90
2023-04-12T21:43:39.408Z,27.60
2023-04-12T21:46:08.137Z,29.20
2023-04-12T21:48:36.629Z,26.40
2023-04-12T21:51:04.772Z,29.10
2023-04-12T21:53:32.674Z,24.10
2023-04-12T21:56:01.347Z,22.70
2023-04-12T21:58:30.221Z,26.30
2023-04-12T22:00:58.448Z,27.10
2023-04-12T22:03:26.411Z,28.20
2023-04-12T22:06:04.445Z,19.90
2023-04-12T22:08:33.360Z,27.10
2023-04-12T22:11:01.580Z,29.40
2023-04-12T22:13:30.791Z,32.60
2023-04-12T22:16:00.855Z,29.80
2023-04-12T22:18:28.726Z,25.10
2023-04-12T22:20:58.018Z,27.90
2023-04-12T22:23:26.398Z,28.80
2023-04-12T22:25:58.685Z,28.00
2023-04-12T22:28:26.532Z,28.20
2023-04-12T22:30:57.160Z,27.60
2023-04-12T22:33:25.224Z,24.80
2023-04-12T22:35:53.083Z,25.40
2023-04-12T22:38:20.920Z,24.50
2023-04-12T22:40:48.826Z,28.00
2023-04-12T22:43:22.369Z,25.70
2023-04-12T22:45:54.139Z,26.40
2023-04-12T22:48:25.218Z,26.70
2023-04-12T22:50:54.620Z,26.80
2023-04-12T22:53:22.605Z,24.50
2023-04-12T22:55:53.834Z,27.40
2023-04-12T22:58:21.777Z,26.90
2023-04-12T23:00:50.994Z,28.50
2023-04-12T23:03:20.556Z,29.30
2023-04-12T23:05:50.384Z,26.00
2023-04-12T23:08:18.180Z,29.50
2023-04-12T23:10:46.275Z,31.40
2023-04-12T23:13:14.116Z,27.20
2023-04-12T23:15:45.376Z,23.90
2023-04-12T23:18:13.274Z,25.50
2023-04-12T23:20:44.928Z,21.80
2023-04-12T23:23:12.662Z,22.60
2023-04-12T23:25:41.846Z,25.10
2023-04-12T23:28:15.747Z,24.40
2023-04-12T23:30:48.011Z,25.60
2023-04-12T23:33:18.360Z,23.80
2023-04-12T23:35:52.620Z,22.30
2023-04-12T23:38:26.130Z,23.90
2023-04-12T23:40:54.322Z,22.70
2023-04-12T23:43:24.656Z,22.40
2023-04-12T23:45:53.144Z,22.50
2023-04-12T23:48:22.330Z,21.00
2023-04-12T23:50:51.390Z,20.00
2023-04-12T23:53:19.431Z,19.00
2023-04-12T23:55:49.561Z,21.20
2023-04-12T23:58:18.650Z,22.10
